Oak Hill, Alabama
Current Conditions -  °F | °C
As of 8:56 PM on Thursday 18 Dec 2014 (Local Time) from KPRN Reporting Station
Broken Clouds Broken Clouds  
Wind Chill: 53°   Ceiling: 10000
Heat Index: 53°   Visibility: 10mi
Dew Point: 34°   Wind: 5mph
Humidity: 48%   Direction: 330°NNW
Pressure: 30.15"   Gusts: NA
Location:  31.92°N, 87.09°W
Report Text: KPRN 190256Z AUTO 33004KT 10SM FEW027 BKN100 BKN120 12/01 A3015 RMK AO2 RAE0158 SLP210 P0000 60000 T01170011 50005
Loading
Personal Weather Stations






























Interactive Weather Map New forecast layout! Learn more

10-Day Weather Forecast

Advertisements
Track Severe Weather on mobile